Time;durP1;ratioP1;P1;durP2;ratioP2;P2;SDS_P1;SDS_P2;PMS_P1;PMS_P2;Temp;Humidity;BMP_temperature;BMP_pressure;BME280_temperature;BME280_humidity;BME280_pressure;Samples;Min_cycle;Max_cycle;Signal;HPM_P1;HPM_P2
2022/01/15 04:31:52;;;;;;;22.30;13.47;;;;;;;1.90;57.92;100047.97;7498818;23;20276;-81
2022/01/15 04:35:14;;;;;;;18.03;13.33;;;;;;;2.14;58.48;100065.50;6809243;29;20202;-82
2022/01/15 04:38:37;;;;;;;20.07;13.27;;;;;;;2.14;57.42;100073.47;6816002;29;20702;-81
2022/01/15 04:41:59;;;;;;;15.67;13.03;;;;;;;1.94;57.26;100073.34;6816281;29;20782;-81
2022/01/15 04:45:20;;;;;;;22.80;14.20;;;;;;;1.69;56.97;100052.31;6816814;29;20214;-83
2022/01/15 04:48:43;;;;;;;18.80;12.90;;;;;;;2.34;56.23;100035.50;6816073;29;20249;-82
2022/01/15 04:52:05;;;;;;;17.80;13.13;;;;;;;1.85;55.74;100053.66;6817496;29;20234;-83
2022/01/15 04:55:27;;;;;;;19.20;13.23;;;;;;;1.91;56.58;100061.16;6816437;29;20217;-82
2022/01/15 04:58:49;;;;;;;21.90;13.87;;;;;;;2.13;56.23;100023.91;6815462;29;20207;-82
2022/01/15 05:02:10;;;;;;;16.77;13.17;;;;;;;1.51;56.67;100062.56;6817021;29;20710;-83
2022/01/15 05:05:33;;;;;;;22.57;13.37;;;;;;;1.55;58.27;100026.78;6816092;29;20210;-80
2022/01/15 05:09:03;;;;;;;23.23;14.23;;;;;;;1.81;58.37;100072.63;6814887;29;20277;-83
2022/01/15 05:12:29;;;;;;;21.60;14.37;;;;;;;1.79;58.39;100064.78;6816285;29;20233;-83
2022/01/15 05:15:50;;;;;;;20.43;13.07;;;;;;;1.44;58.69;100071.13;6815643;29;20222;-81
2022/01/15 05:19:12;;;;;;;18.37;13.00;;;;;;;1.52;57.68;100079.34;6816746;29;20211;-83
2022/01/15 05:22:35;;;;;;;18.90;13.23;;;;;;;1.31;57.67;100052.59;6816388;29;20637;-83
2022/01/15 05:25:57;;;;;;;18.40;13.20;;;;;;;1.72;57.61;100082.16;6793192;29;20563;-81
2022/01/15 05:29:18;;;;;;;20.03;13.57;;;;;;;1.26;57.71;100081.31;6789548;29;20223;-83
2022/01/15 05:32:40;;;;;;;27.53;14.60;;;;;;;1.65;57.73;100083.59;6789545;29;20235;-83
2022/01/15 05:36:02;;;;;;;17.23;12.33;;;;;;;1.79;57.44;100077.22;6789227;29;20214;-83
2022/01/15 05:39:25;;;;;;;21.77;13.93;;;;;;;1.85;58.08;100088.25;6789575;29;20267;-82
2022/01/15 05:42:47;;;;;;;19.03;14.07;;;;;;;1.83;57.76;100068.88;6789757;29;20223;-83
2022/01/15 05:46:08;;;;;;;21.90;14.07;;;;;;;2.03;57.15;100070.84;6788918;29;20207;-82
2022/01/15 05:49:30;;;;;;;20.23;13.77;;;;;;;2.28;57.53;100080.34;6789708;29;20204;-81
2022/01/15 05:52:51;;;;;;;16.50;13.17;;;;;;;2.07;56.66;100039.53;6789135;29;20602;-83
2022/01/15 05:56:15;;;;;;;19.50;14.30;;;;;;;1.61;56.63;100052.91;6789043;29;20206;-83
2022/01/15 05:59:36;;;;;;;18.70;13.67;;;;;;;1.60;56.30;100007.84;6788647;29;20245;-82
2022/01/15 06:02:58;;;;;;;20.53;13.47;;;;;;;1.64;56.49;100097.00;6789003;29;20226;-82
2022/01/15 06:06:19;;;;;;;18.23;13.13;;;;;;;1.83;57.71;100089.31;6788855;29;20215;-82
2022/01/15 06:09:41;;;;;;;19.43;14.23;;;;;;;1.77;57.88;100079.16;6789673;29;20260;-83
2022/01/15 06:13:04;;;;;;;23.27;14.03;;;;;;;2.11;56.81;100097.66;6789290;29;20230;-81
2022/01/15 06:16:25;;;;;;;17.40;12.77;;;;;;;1.92;56.45;100073.50;6788401;29;20207;-83
2022/01/15 06:19:47;;;;;;;18.03;12.80;;;;;;;2.06;55.34;100054.63;6789036;29;20218;-82
2022/01/15 06:23:08;;;;;;;20.37;13.47;;;;;;;2.36;55.69;100096.59;6789611;29;20226;-83
2022/01/15 06:26:30;;;;;;;17.73;13.47;;;;;;;2.11;55.02;100059.56;6788632;29;20211;-83
2022/01/15 06:29:55;;;;;;;20.10;13.20;;;;;;;2.09;54.81;100083.66;6789217;29;20686;-83
2022/01/15 06:33:17;;;;;;;17.43;12.37;;;;;;;2.11;54.98;100084.38;6788772;29;20250;-81
2022/01/15 06:36:39;;;;;;;17.30;12.73;;;;;;;2.04;55.81;100080.50;6787411;29;20221;-83
2022/01/15 06:40:00;;;;;;;17.63;12.53;;;;;;;1.90;55.39;100040.00;6787861;29;20207;-84
2022/01/15 06:43:22;;;;;;;16.53;13.10;;;;;;;1.59;56.06;100078.75;6787823;29;20228;-84
2022/01/15 06:46:45;;;;;;;22.17;13.93;;;;;;;1.41;57.20;100072.19;6788182;29;20242;-83
2022/01/15 06:50:08;;;;;;;18.90;13.63;;;;;;;1.34;57.12;100076.28;6788504;29;20230;-85
2022/01/15 06:53:30;;;;;;;21.83;15.23;;;;;;;1.67;57.04;100075.50;6790737;29;20238;-84
2022/01/15 06:56:51;;;;;;;23.80;15.03;;;;;;;1.55;56.17;100047.22;6789693;29;20265;-85
2022/01/15 07:00:14;;;;;;;21.07;15.07;;;;;;;1.23;56.12;100008.97;6788713;29;20206;-83
2022/01/15 07:03:37;;;;;;;21.73;14.80;;;;;;;1.35;57.11;100058.53;6789883;29;20202;-83
2022/01/15 07:06:59;;;;;;;21.17;13.93;;;;;;;1.43;57.40;100045.50;6794076;29;20226;-81
2022/01/15 07:10:20;;;;;;;18.10;13.93;;;;;;;1.76;57.73;100065.00;6791190;29;20203;-84
2022/01/15 07:13:42;;;;;;;20.90;14.57;;;;;;;1.90;56.79;100055.97;6789891;29;20205;-85
2022/01/15 07:17:04;;;;;;;12.50;10.87;;;;;;;1.79;55.51;100051.50;6790928;29;20204;-83
2022/01/15 07:20:28;;;;;;;16.87;11.57;;;;;;;1.95;56.25;100057.28;6790763;29;20234;-83
2022/01/15 07:23:49;;;;;;;17.97;12.40;;;;;;;1.71;55.88;100064.50;6790370;29;20211;-84
2022/01/15 07:27:11;;;;;;;18.20;11.90;;;;;;;1.67;56.23;100063.06;6789612;29;20271;-84
2022/01/15 07:30:33;;;;;;;20.57;13.40;;;;;;;1.65;57.11;100046.38;6790059;29;20293;-83
2022/01/15 07:33:55;;;;;;;21.23;13.00;;;;;;;1.64;57.14;100031.41;6791510;29;20211;-84
2022/01/15 07:37:18;;;;;;;18.23;12.97;;;;;;;1.99;56.23;100040.13;6794279;29;20290;-84
2022/01/15 07:40:40;;;;;;;24.10;14.83;;;;;;;2.23;55.64;100055.94;6793881;29;20227;-83
2022/01/15 07:44:01;;;;;;;18.77;13.90;;;;;;;1.85;55.49;100034.19;6793985;29;20219;-84
2022/01/15 07:47:23;;;;;;;19.67;13.00;;;;;;;1.46;56.11;99986.81;6793593;29;20237;-82
2022/01/15 07:50:45;;;;;;;18.73;14.13;;;;;;;1.86;55.96;100046.53;6794463;29;20238;-83
2022/01/15 07:54:08;;;;;;;18.73;14.77;;;;;;;1.60;56.75;100051.22;6793224;29;20218;-82
2022/01/15 07:57:29;;;;;;;21.70;13.70;;;;;;;1.35;57.19;99986.78;6791825;29;20211;-84
2022/01/15 08:00:51;;;;;;;18.57;14.03;;;;;;;1.99;56.37;100044.59;6786532;29;20228;-83
2022/01/15 08:04:12;;;;;;;22.70;15.07;;;;;;;2.05;55.78;100049.41;6783761;29;20710;-84
2022/01/15 08:07:34;;;;;;;23.57;16.30;;;;;;;2.00;55.69;100014.34;6783324;29;20223;-85
2022/01/15 08:10:57;;;;;;;20.73;15.40;;;;;;;1.70;56.57;100012.31;6769148;29;20227;-85
2022/01/15 08:14:18;;;;;;;24.63;16.43;;;;;;;2.04;56.85;100035.28;6766618;29;20865;-85
2022/01/15 08:17:40;;;;;;;27.93;16.87;;;;;;;2.10;56.46;100020.66;6768649;29;20207;-83
2022/01/15 08:21:03;;;;;;;25.30;18.57;;;;;;;2.12;57.32;100008.91;6766051;29;20232;-86
2022/01/15 08:24:24;;;;;;;30.97;18.63;;;;;;;2.47;57.04;100030.88;6765372;29;20359;-82
2022/01/15 08:27:49;;;;;;;26.83;19.00;;;;;;;2.49;56.62;100028.09;6769685;29;20580;-83
2022/01/15 08:31:10;;;;;;;24.20;18.17;;;;;;;2.10;56.94;99970.09;6776701;29;20695;-83
2022/01/15 08:34:32;;;;;;;21.47;15.67;;;;;;;2.64;57.60;100033.00;6779601;29;20207;-83
2022/01/15 08:37:55;;;;;;;22.93;15.43;;;;;;;2.86;56.97;100022.28;6787562;29;20759;-83
2022/01/15 08:41:16;;;;;;;27.07;16.10;;;;;;;2.77;57.36;100012.38;6796161;29;20290;-83
2022/01/15 08:44:42;;;;;;;23.50;16.63;;;;;;;3.14;57.13;100023.47;6812121;29;20282;-83
2022/01/15 08:48:04;;;;;;;23.57;16.10;;;;;;;5.34;51.66;100013.34;6812200;29;20303;-79
2022/01/15 08:51:25;;;;;;;23.37;15.50;;;;;;;7.10;46.32;99989.66;6808789;29;20225;-84
2022/01/15 08:54:47;;;;;;;21.60;16.00;;;;;;;8.30;43.84;100003.88;6794115;29;20213;-84
2022/01/15 08:58:09;;;;;;;22.50;16.43;;;;;;;8.22;43.63;99982.38;6769610;29;20201;-82
2022/01/15 09:01:32;;;;;;;25.13;17.83;;;;;;;8.12;43.22;99989.66;6768562;29;20240;-84
2022/01/15 09:04:53;;;;;;;23.70;16.87;;;;;;;7.55;43.93;99982.28;6769563;29;20210;-82
2022/01/15 09:08:15;;;;;;;21.93;16.03;;;;;;;6.02;47.25;99984.44;6769975;29;20234;-82
2022/01/15 09:11:37;;;;;;;26.80;18.23;;;;;;;5.49;49.49;99995.88;6771649;29;20234;-81
2022/01/15 09:14:59;;;;;;;26.83;18.30;;;;;;;5.08;51.39;99943.56;6772681;29;20225;-83
2022/01/15 09:18:22;;;;;;;27.97;19.77;;;;;;;5.32;51.34;99960.00;6774211;29;20219;-84
2022/01/15 09:21:44;;;;;;;22.83;17.70;;;;;;;5.34;50.72;99976.75;6775207;29;20234;-82
2022/01/15 09:25:06;;;;;;;25.53;17.70;;;;;;;5.31;52.19;99997.59;6777599;29;20586;-83
2022/01/15 09:32:08;;;;;;;22.53;17.07;;;;;;;5.32;53.28;99978.72;6777978;29;20233;-84
2022/01/15 09:35:32;;;;;;;24.60;18.90;;;;;;;5.04;52.22;99903.94;6778751;29;20205;-82
2022/01/15 09:38:53;;;;;;;29.90;19.60;;;;;;;4.89;54.48;99943.59;6781544;29;20222;-83
2022/01/15 09:42:16;;;;;;;28.10;20.97;;;;;;;5.37;53.65;99989.00;6781713;29;20243;-83
2022/01/15 09:45:39;;;;;;;27.13;18.67;;;;;;;5.48;53.63;100002.22;6781527;29;20232;-83
2022/01/15 09:49:01;;;;;;;29.97;20.53;;;;;;;5.37;52.96;99919.47;6781865;29;20253;-80
2022/01/15 09:52:25;;;;;;;23.50;15.90;;;;;;;4.96;54.01;99976.78;6780542;29;20242;-82
2022/01/15 09:55:47;;;;;;;26.17;16.83;;;;;;;5.60;53.88;100009.09;6778856;29;20212;-83
2022/01/15 09:59:09;;;;;;;25.97;17.93;;;;;;;5.06;54.28;99988.31;6781167;29;20274;-81
2022/01/15 10:02:30;;;;;;;21.43;15.20;;;;;;;5.22;54.26;99991.28;6780845;29;20236;-86
2022/01/15 10:05:53;;;;;;;23.07;16.67;;;;;;;5.99;53.51;99989.25;6764563;29;20222;-84
2022/01/15 10:09:22;;;;;;;27.33;20.73;;;;;;;6.33;53.25;99966.25;6764710;29;20230;-86
2022/01/15 10:12:44;;;;;;;24.27;18.17;;;;;;;6.42;52.19;99976.91;6765896;29;20237;-86
2022/01/15 10:16:13;;;;;;;28.63;21.03;;;;;;;6.21;51.39;99892.47;6764934;29;20303;-85
2022/01/15 10:19:37;;;;;;;21.70;15.20;;;;;;;6.01;52.43;99968.53;6765919;29;20206;-84
2022/01/15 10:23:00;;;;;;;25.07;18.30;;;;;;;4.87;53.55;99828.03;6765335;29;20242;-86
2022/01/15 10:26:24;;;;;;;22.00;16.27;;;;;;;6.32;52.13;99945.81;6766475;29;20234;-85
2022/01/15 10:29:51;;;;;;;21.53;15.90;;;;;;;6.55;52.67;99952.44;6768341;29;20235;-83
2022/01/15 10:33:12;;;;;;;23.63;18.60;;;;;;;6.57;53.24;99961.16;6769250;29;20395;-84
2022/01/15 10:36:34;;;;;;;20.30;15.23;;;;;;;6.18;53.37;99962.41;6769637;29;20763;-85
2022/01/15 10:39:59;;;;;;;20.27;15.70;;;;;;;6.19;53.85;99948.00;6771368;29;20215;-84
2022/01/15 10:43:33;;;;;;;20.00;16.63;;;;;;;6.79;52.27;99939.28;6768616;29;20243;-85
2022/01/15 10:55:29;;;;;;;21.23;14.53;;;;;;;6.59;51.88;99834.06;6781988;29;20225;-81
2022/01/15 11:03:18;;;;;;;22.23;16.13;;;;;;;7.75;50.00;99837.94;6683501;29;20208;-81
2022/01/15 11:06:48;;;;;;;22.60;15.63;;;;;;;7.90;49.61;99834.47;6683085;29;20219;-81
2022/01/15 11:14:04;;;;;;;18.90;15.03;;;;;;;8.83;47.61;99878.00;6685423;29;20280;-81
2022/01/15 11:17:47;;;;;;;20.23;15.63;;;;;;;8.25;48.52;99857.63;6686624;29;20263;-81
2022/01/15 11:21:20;;;;;;;21.13;15.63;;;;;;;8.55;47.94;99835.47;6588142;30;20220;-80
2022/01/15 11:24:43;;;;;;;20.27;15.53;;;;;;;9.23;47.05;99843.84;6588454;30;20608;-81
2022/01/15 11:28:05;;;;;;;21.37;16.27;;;;;;;8.97;48.42;99871.97;6587968;30;20244;-81
2022/01/15 11:31:30;;;;;;;25.17;18.83;;;;;;;9.18;47.06;99873.13;6587604;30;20438;-81
2022/01/15 11:35:03;;;;;;;23.33;17.43;;;;;;;8.42;48.35;99840.53;6586857;30;20222;-81
2022/01/15 11:38:43;;;;;;;21.40;17.33;;;;;;;8.79;47.90;99822.03;6609623;29;20224;-81
2022/01/15 11:42:06;;;;;;;24.63;17.70;;;;;;;9.42;47.31;99853.38;6712810;29;20708;-81
2022/01/15 11:45:38;;;;;;;19.80;15.83;;;;;;;9.14;47.53;99839.47;6712768;29;20221;-81
2022/01/15 11:49:32;;;;;;;22.03;17.90;;;;;;;8.87;48.49;99841.69;6712990;29;20236;-81
2022/01/15 11:52:53;;;;;;;20.67;17.40;;;;;;;8.55;48.38;99793.31;6712848;29;20229;-81
2022/01/15 11:56:17;;;;;;;21.60;16.97;;;;;;;8.87;48.85;99840.84;6713663;29;20212;-81
2022/01/15 11:59:49;;;;;;;22.17;17.37;;;;;;;8.97;48.43;99828.06;6767977;29;20221;-80
2022/01/15 12:03:14;;;;;;;21.77;17.37;;;;;;;9.13;47.44;99793.09;6767799;29;20217;-81
2022/01/15 12:07:09;;;;;;;23.23;18.67;;;;;;;9.77;47.58;99821.44;6767302;29;20211;-81
2022/01/15 12:10:40;;;;;;;26.60;19.87;;;;;;;9.24;48.50;99810.53;6767617;29;20226;-81
2022/01/15 12:14:03;;;;;;;28.57;20.67;;;;;;;9.37;47.35;99783.91;6766761;29;20218;-81
2022/01/15 12:17:26;;;;;;;26.60;20.37;;;;;;;9.41;47.54;99798.72;6766559;29;20217;-81
2022/01/15 12:20:50;;;;;;;23.67;17.07;;;;;;;9.94;46.61;99792.56;6766197;29;20222;-81
2022/01/15 12:24:35;;;;;;;23.37;18.37;;;;;;;9.49;47.98;99798.69;6766673;29;20226;-81
2022/01/15 12:27:58;;;;;;;22.40;17.50;;;;;;;9.79;47.46;99791.63;6766961;29;20238;-81
2022/01/15 12:31:21;;;;;;;21.20;18.07;;;;;;;10.01;46.47;99753.13;6767098;29;20238;-81
2022/01/15 12:34:46;;;;;;;21.30;17.53;;;;;;;10.07;46.84;99776.69;6772340;29;20218;-81
2022/01/15 12:38:10;;;;;;;22.53;17.77;;;;;;;9.77;46.58;99746.03;6763539;29;20288;-81
2022/01/15 12:41:34;;;;;;;28.00;19.40;;;;;;;9.82;46.99;99769.75;6782428;29;20220;-83
2022/01/15 12:44:55;;;;;;;24.77;18.83;;;;;;;9.55;47.30;99727.97;6746556;29;20219;-80
2022/01/15 12:48:21;;;;;;;21.63;18.03;;;;;;;9.53;47.67;99761.47;6792457;29;20579;-80
2022/01/15 12:51:42;;;;;;;28.20;21.97;;;;;;;9.65;48.17;99763.63;6792450;29;20206;-80
2022/01/15 12:55:05;;;;;;;25.50;20.47;;;;;;;9.45;48.21;99737.28;6792302;29;20773;-81
2022/01/15 12:58:28;;;;;;;25.40;17.83;;;;;;;9.69;47.33;99742.56;6792319;29;20211;-86
2022/01/15 13:01:51;;;;;;;22.03;17.43;;;;;;;9.11;48.49;99734.06;6793119;29;20223;-81
2022/01/15 13:05:15;;;;;;;26.73;18.60;;;;;;;9.46;47.33;99718.25;6795216;29;20598;-93
2022/01/15 13:08:40;;;;;;;27.27;19.03;;;;;;;9.17;48.46;99728.00;6796928;29;20237;-93
2022/01/15 13:16:32;;;;;;;27.67;20.90;;;;;;;9.90;47.28;99721.19;6824046;23;20248;-85
2022/01/15 13:19:54;;;;;;;25.43;19.80;;;;;;;9.64;48.21;99724.22;6819273;29;20608;-85
2022/01/15 13:23:17;;;;;;;28.83;20.13;;;;;;;10.07;47.25;99722.78;6821118;29;20203;-86
2022/01/15 13:26:41;;;;;;;28.90;21.77;;;;;;;9.89;48.24;99716.84;6822937;29;20580;-84
2022/01/15 13:30:05;;;;;;;24.83;19.80;;;;;;;9.43;48.54;99691.69;6819017;29;20431;-85
2022/01/15 13:33:38;;;;;;;25.23;18.30;;;;;;;9.81;47.62;99714.19;6818387;29;20213;-85
2022/01/15 13:37:07;;;;;;;26.03;21.47;;;;;;;9.48;48.89;99699.25;6818180;29;20233;-84
2022/01/15 13:40:40;;;;;;;25.73;20.60;;;;;;;9.92;47.86;99684.97;6810231;29;20211;-84
2022/01/15 13:44:10;;;;;;;26.67;21.63;;;;;;;9.79;48.32;99705.44;6791643;29;20210;-84
2022/01/15 13:47:34;;;;;;;27.97;21.70;;;;;;;8.67;50.18;99675.53;6791866;29;20640;-84
2022/01/15 13:54:36;;;;;;;26.43;21.57;;;;;;;9.02;49.43;99692.91;6808737;29;20234;-85
2022/01/15 13:58:10;;;;;;;26.30;20.47;;;;;;;9.51;49.01;99709.66;6820071;29;20296;-85
2022/01/15 14:01:35;;;;;;;27.07;21.60;;;;;;;9.28;49.34;99700.69;6815668;29;20264;-86
2022/01/15 14:05:10;;;;;;;86.67;52.47;;;;;;;9.17;50.07;99712.66;6818051;29;20236;-86
2022/01/15 14:08:31;;;;;;;27.17;20.47;;;;;;;8.80;50.26;99690.13;6819167;29;20214;-85
2022/01/15 14:12:12;;;;;;;23.53;19.80;;;;;;;8.27;52.15;99705.16;6818153;29;20214;-86
2022/01/15 14:15:36;;;;;;;36.63;28.40;;;;;;;8.73;50.82;99701.72;6817484;29;20239;-86
2022/01/15 14:19:24;;;;;;;32.50;21.17;;;;;;;8.16;53.10;99703.63;6817637;29;20194;-85
2022/01/15 14:22:46;;;;;;;33.23;23.93;;;;;;;8.46;52.59;99697.59;6811714;29;20213;-85
2022/01/15 14:26:15;;;;;;;27.67;21.40;;;;;;;7.66;54.37;99669.84;6801312;29;20227;-83
2022/01/15 14:29:37;;;;;;;35.20;26.77;;;;;;;7.79;54.32;99671.03;6813505;29;20227;-84
2022/01/15 14:33:00;;;;;;;33.93;22.97;;;;;;;8.28;53.29;99699.63;6811441;29;20212;-83
2022/01/15 14:36:22;;;;;;;33.40;25.37;;;;;;;8.24;53.07;99676.78;6817555;29;20708;-84
2022/01/15 14:39:43;;;;;;;33.50;22.93;;;;;;;8.30;53.21;99689.53;6818055;29;20208;-84
2022/01/15 14:43:21;;;;;;;34.17;24.70;;;;;;;7.98;53.54;99686.84;6817085;29;20210;-84
2022/01/15 14:46:43;;;;;;;36.77;24.53;;;;;;;7.68;54.76;99679.44;6815598;29;20233;-84
2022/01/15 14:50:07;;;;;;;31.23;23.87;;;;;;;7.81;54.71;99708.44;6817263;29;20239;-84
2022/01/15 14:53:29;;;;;;;34.67;24.90;;;;;;;7.91;54.67;99693.84;6818112;29;20208;-85
2022/01/15 14:56:51;;;;;;;35.20;24.57;;;;;;;7.44;55.79;99692.78;6817595;29;20236;-84
2022/01/15 15:00:13;;;;;;;34.70;24.97;;;;;;;7.89;54.90;99695.06;6817008;29;20581;-82
2022/01/15 15:03:35;;;;;;;35.47;24.73;;;;;;;7.29;55.79;99690.88;6815543;29;20213;-84
2022/01/15 15:06:58;;;;;;;40.10;26.50;;;;;;;7.53;55.86;99696.31;6815119;29;20224;-84
2022/01/15 15:10:19;;;;;;;38.40;26.27;;;;;;;7.30;56.65;99690.72;6815130;29;20595;-84
2022/01/15 15:13:41;;;;;;;38.30;26.20;;;;;;;7.48;56.09;99687.94;6814880;29;20235;-85
2022/01/15 15:17:04;;;;;;;39.63;26.03;;;;;;;7.25;56.95;99695.72;6815631;29;20239;-84
2022/01/15 15:20:25;;;;;;;38.53;27.07;;;;;;;7.19;57.04;99687.50;6815979;29;20217;-84
2022/01/15 15:23:49;;;;;;;42.83;29.07;;;;;;;6.96;57.65;99675.69;6815346;29;20219;-84
2022/01/15 15:27:14;;;;;;;38.70;27.13;;;;;;;6.84;58.32;99687.69;6815227;29;20260;-85
2022/01/15 15:30:36;;;;;;;44.33;27.97;;;;;;;6.83;57.85;99661.91;6815751;29;20577;-84
2022/01/15 15:33:58;;;;;;;43.77;29.10;;;;;;;7.08;57.40;99690.47;6814976;29;20302;-85
2022/01/15 15:37:28;;;;;;;41.17;28.23;;;;;;;6.62;58.85;99697.13;6815985;29;20203;-83
2022/01/15 15:40:51;;;;;;;45.57;29.70;;;;;;;6.87;58.15;99692.72;6802409;29;20570;-84
2022/01/15 15:44:15;;;;;;;45.90;28.53;;;;;;;6.64;58.83;99695.13;6788523;29;20237;-83
2022/01/15 15:51:14;;;;;;;52.17;31.43;;;;;;;6.60;59.00;99679.53;6789387;29;20230;-84
2022/01/15 15:54:37;;;;;;;47.37;32.13;;;;;;;6.48;59.25;99688.84;6793042;29;20231;-85
2022/01/15 15:58:00;;;;;;;58.67;35.33;;;;;;;6.35;60.35;99702.63;6795185;29;20211;-83
2022/01/15 16:01:21;;;;;;;64.07;38.63;;;;;;;6.16;60.79;99673.38;6794955;29;20206;-84
2022/01/15 16:04:43;;;;;;;75.53;42.10;;;;;;;6.19;60.60;99696.31;6795331;29;20592;-85
2022/01/15 16:08:06;;;;;;;72.00;40.50;;;;;;;6.32;60.59;99702.09;6796072;29;20691;-85
2022/01/15 16:11:27;;;;;;;62.93;39.33;;;;;;;6.30;60.43;99712.16;6795357;29;20575;-85
2022/01/15 16:14:51;;;;;;;53.87;34.90;;;;;;;6.53;59.41;99694.53;6795153;29;20225;-84
2022/01/15 16:18:12;;;;;;;56.20;35.93;;;;;;;6.86;58.60;99712.50;6798060;29;20264;-85
2022/01/15 16:21:34;;;;;;;58.63;34.97;;;;;;;6.45;59.45;99716.78;6797745;29;20581;-84
2022/01/15 16:24:56;;;;;;;55.27;34.97;;;;;;;6.71;59.22;99709.56;6792832;29;20232;-84
2022/01/15 16:28:17;;;;;;;52.47;34.90;;;;;;;6.98;58.01;99676.34;6796163;29;20213;-84
2022/01/15 16:31:40;;;;;;;54.13;35.53;;;;;;;6.89;56.13;99694.25;6819190;29;20222;-84
2022/01/15 16:35:02;;;;;;;42.33;29.70;;;;;;;6.60;55.57;99696.44;6819024;29;20226;-85
2022/01/15 16:38:24;;;;;;;48.10;32.37;;;;;;;6.19;56.54;99709.72;6798828;29;20707;-84
2022/01/15 16:41:45;;;;;;;56.80;35.60;;;;;;;6.13;56.56;99713.84;6792469;29;20222;-83
2022/01/15 16:45:09;;;;;;;62.63;40.27;;;;;;;6.01;56.64;99707.03;6805026;23;20264;-78
2022/01/15 16:48:33;;;;;;;64.97;39.73;;;;;;;5.35;57.92;99662.06;6795660;29;20212;-78
2022/01/15 16:51:55;;;;;;;67.60;39.60;;;;;;;5.68;57.58;99680.97;6804038;29;20232;-78
2022/01/15 16:55:18;;;;;;;72.27;43.63;;;;;;;6.19;56.72;99696.31;6807697;29;20219;-80
2022/01/15 16:58:40;;;;;;;53.93;37.97;;;;;;;5.88;55.77;99652.22;6806013;29;20205;-80
2022/01/15 17:02:02;;;;;;;65.23;39.40;;;;;;;5.75;57.01;99694.56;6817206;29;20213;-81
2022/01/15 17:05:26;;;;;;;63.97;40.10;;;;;;;5.43;57.00;99719.13;6817612;29;20212;-80
2022/01/15 17:08:48;;;;;;;61.13;39.13;;;;;;;5.13;57.58;99684.72;6817175;29;20214;-81
2022/01/15 17:12:10;;;;;;;65.43;41.20;;;;;;;5.29;57.53;99671.53;6817233;29;20243;-79
2022/01/15 17:15:32;;;;;;;55.37;37.07;;;;;;;5.64;57.28;99711.69;6817346;29;20215;-78
2022/01/15 17:18:54;;;;;;;57.43;37.63;;;;;;;5.36;57.40;99707.38;6816879;29;20212;-80
2022/01/15 17:22:17;;;;;;;54.40;35.73;;;;;;;5.51;57.23;99708.56;6779066;29;20206;-78
2022/01/15 17:30:50;;;;;;;62.00;41.57;;;;;;;4.62;58.25;99609.66;6717106;29;20266;-92
2022/01/15 17:47:44;;;;;;;61.13;37.87;;;;;;;4.43;57.64;99569.66;6802228;29;20226;-95
2022/01/15 17:55:23;;;;;;;55.13;34.90;;;;;;;4.75;58.14;99694.75;6841826;23;20236;-81
2022/01/15 17:58:44;;;;;;;51.80;33.60;;;;;;;5.10;58.06;99679.69;6817309;29;20207;-81
2022/01/15 18:02:06;;;;;;;50.80;32.17;;;;;;;4.92;58.16;99672.59;6817330;29;20210;-81
2022/01/15 18:05:29;;;;;;;51.17;32.97;;;;;;;5.04;57.74;99660.72;6816221;29;20626;-81
2022/01/15 18:08:52;;;;;;;47.07;32.00;;;;;;;5.37;57.19;99689.50;6816618;29;20223;-80
2022/01/15 18:12:14;;;;;;;51.37;34.10;;;;;;;5.24;57.13;99679.16;6815762;29;20237;-81
2022/01/15 18:15:36;;;;;;;54.37;33.97;;;;;;;5.29;57.01;99676.88;6816048;29;20224;-81
2022/01/15 18:18:58;;;;;;;46.57;30.63;;;;;;;5.22;56.35;99667.78;6817654;29;20298;-81
2022/01/15 18:22:21;;;;;;;49.57;32.27;;;;;;;5.20;56.32;99666.25;6817825;29;20210;-81
2022/01/15 18:25:43;;;;;;;44.70;30.43;;;;;;;5.24;56.30;99670.31;6804578;29;20310;-81
2022/01/15 18:29:05;;;;;;;45.80;29.03;;;;;;;5.18;56.45;99660.22;6797785;29;20212;-81
2022/01/15 18:32:28;;;;;;;49.87;31.60;;;;;;;5.08;56.72;99664.78;6802619;29;20283;-80
2022/01/15 18:35:50;;;;;;;42.70;30.17;;;;;;;4.91;57.58;99670.94;6811831;29;20222;-81
2022/01/15 18:39:14;;;;;;;55.87;35.30;;;;;;;4.46;58.69;99668.16;6817494;29;20210;-81
2022/01/15 18:42:37;;;;;;;81.30;48.10;;;;;;;5.04;58.84;99656.22;6817677;29;20721;-81
2022/01/15 18:45:59;;;;;;;51.70;31.67;;;;;;;5.20;58.31;99653.72;6817094;29;20238;-81
2022/01/15 18:49:20;;;;;;;47.77;31.30;;;;;;;5.39;57.66;99671.47;6817684;29;20214;-81
2022/01/15 18:52:42;;;;;;;45.83;28.50;;;;;;;5.51;57.57;99670.25;6817351;29;20208;-82
2022/01/15 18:56:05;;;;;;;47.83;31.27;;;;;;;5.17;57.25;99655.84;6816735;29;20332;-81
2022/01/15 18:59:27;;;;;;;64.97;41.23;;;;;;;5.09;56.91;99611.19;6816816;29;20221;-81
2022/01/15 19:02:49;;;;;;;55.97;32.97;;;;;;;5.48;57.41;99673.25;6816984;29;20207;-81
2022/01/15 19:06:11;;;;;;;49.33;32.43;;;;;;;5.71;56.79;99653.06;6816651;29;20236;-82
2022/01/15 19:09:32;;;;;;;45.77;29.13;;;;;;;5.70;57.04;99657.56;6816198;29;20208;-81
2022/01/15 19:12:55;;;;;;;43.77;26.53;;;;;;;5.74;57.98;99658.09;6816147;29;20293;-82
2022/01/15 19:16:17;;;;;;;38.07;23.37;;;;;;;5.81;57.93;99677.94;6817211;29;20236;-81
2022/01/15 19:19:38;;;;;;;40.90;25.03;;;;;;;5.72;57.85;99658.25;6817575;29;20203;-81
2022/01/15 19:23:00;;;;;;;40.67;27.13;;;;;;;5.88;57.91;99689.69;6817284;29;20223;-81
2022/01/15 19:26:22;;;;;;;38.60;23.67;;;;;;;5.59;58.18;99656.94;6818193;29;20361;-81
2022/01/15 19:29:45;;;;;;;39.67;22.17;;;;;;;5.69;59.56;99736.16;6821737;29;20246;-82
2022/01/15 19:33:09;;;;;;;39.07;23.60;;;;;;;5.98;58.86;99781.47;6824216;29;20221;-82
2022/01/15 19:36:30;;;;;;;41.70;23.73;;;;;;;6.17;58.56;99767.91;6824183;29;20704;-82
2022/01/15 19:39:52;;;;;;;39.37;24.73;;;;;;;5.86;58.45;99697.03;6824711;29;20214;-82
2022/01/15 19:43:15;;;;;;;33.17;22.00;;;;;;;5.97;58.55;99689.63;6826777;29;20349;-82
2022/01/15 19:46:38;;;;;;;32.20;19.53;;;;;;;5.54;60.69;99654.75;6832044;29;20585;-82
2022/01/15 19:50:03;;;;;;;34.17;20.27;;;;;;;5.88;59.81;99620.09;6836572;29;20783;-82
2022/01/15 19:53:25;;;;;;;31.73;20.27;;;;;;;5.85;60.02;99521.44;6834341;29;20206;-81
2022/01/15 19:56:48;;;;;;;34.17;20.23;;;;;;;5.98;59.61;99554.81;6829417;29;20234;-82
2022/01/15 20:00:12;;;;;;;40.47;23.93;;;;;;;5.72;59.53;99527.16;6834283;29;20215;-82
2022/01/15 20:03:35;;;;;;;36.33;21.10;;;;;;;6.02;59.30;99556.16;6821554;29;20216;-82
2022/01/15 20:06:56;;;;;;;32.20;19.50;;;;;;;6.26;59.37;99607.16;6818315;29;20239;-83
2022/01/15 20:10:21;;;;;;;32.67;19.97;;;;;;;6.43;58.23;99584.00;6818474;29;20232;-83
2022/01/15 20:13:43;;;;;;;32.30;19.53;;;;;;;6.41;57.79;99604.72;6816332;29;20202;-83
2022/01/15 20:17:05;;;;;;;31.63;19.57;;;;;;;6.57;57.71;99589.59;6817646;29;20430;-83
2022/01/15 20:20:29;;;;;;;30.10;18.50;;;;;;;6.50;57.33;99593.94;6817778;29;20552;-83
2022/01/15 20:23:51;;;;;;;33.43;22.50;;;;;;;6.59;57.57;99568.81;6817082;29;20241;-83
2022/01/15 20:27:12;;;;;;;29.27;19.57;;;;;;;6.51;57.64;99563.44;6817288;29;20236;-84
2022/01/15 20:30:34;;;;;;;34.00;20.50;;;;;;;6.44;57.98;99558.88;6817348;29;20243;-83
2022/01/15 20:33:55;;;;;;;35.43;22.13;;;;;;;6.66;57.72;99599.34;6816432;29;20206;-83
2022/01/15 20:37:18;;;;;;;34.93;21.00;;;;;;;6.60;57.02;99524.13;6808531;29;20628;-83
2022/01/15 20:40:40;;;;;;;27.67;19.23;;;;;;;6.85;56.38;99607.09;6804350;29;20253;-82
2022/01/15 20:44:02;;;;;;;31.33;19.97;;;;;;;6.78;56.87;99584.63;6816688;29;20216;-83
2022/01/15 20:47:24;;;;;;;34.47;21.23;;;;;;;6.58;57.09;99612.69;6817571;29;20227;-83
2022/01/15 20:50:46;;;;;;;29.70;18.73;;;;;;;6.43;57.47;99616.13;6817604;29;20234;-83
2022/01/15 20:54:09;;;;;;;29.80;18.03;;;;;;;6.55;57.76;99630.94;6811826;29;20264;-84
2022/01/15 20:57:33;;;;;;;29.97;17.40;;;;;;;6.52;57.90;99605.31;6815735;29;20199;-82
2022/01/15 21:00:56;;;;;;;33.33;18.67;;;;;;;6.60;57.36;99578.53;6816937;29;20237;-83
2022/01/15 21:04:19;;;;;;;29.93;19.10;;;;;;;6.15;59.32;99609.28;6816628;29;20211;-83
2022/01/15 21:07:40;;;;;;;31.57;19.13;;;;;;;6.61;57.84;99577.53;6816936;29;20299;-83